Time;durP1;ratioP1;P1;durP2;ratioP2;P2;SDS_P1;SDS_P2;PMS_P1;PMS_P2;Temp;Humidity;BMP_temperature;BMP_pressure;BME280_temperature;BME280_humidity;BME280_pressure;Samples;Min_cycle;Max_cycle;Signal;HPM_P1;HPM_P2
2022/09/30 00:02:09;;;;;;;22.33;13.65;;;;;;;13.43;59.62;100834.00;5164844;28;20049;-53
2022/09/30 00:04:41;;;;;;;21.13;13.20;;;;;;;13.42;59.51;100832.34;5164046;28;20045;-53
2022/09/30 00:07:14;;;;;;;23.05;14.15;;;;;;;13.38;59.40;100819.44;5162135;28;20045;-49
2022/09/30 00:09:47;;;;;;;19.38;13.27;;;;;;;13.36;59.62;100825.91;5166096;28;20041;-53
2022/09/30 00:12:20;;;;;;;18.25;10.85;;;;;;;13.32;59.66;100829.88;5163979;28;20643;-52
2022/09/30 00:14:53;;;;;;;18.38;10.07;;;;;;;13.29;59.68;100831.06;5169921;28;20045;-46
2022/09/30 00:17:28;;;;;;;20.60;11.75;;;;;;;13.27;59.73;100827.72;5166875;28;20499;-53
2022/09/30 00:20:01;;;;;;;17.08;10.98;;;;;;;13.24;59.92;100833.34;5163740;28;20056;-53
2022/09/30 00:22:34;;;;;;;18.55;11.00;;;;;;;13.20;59.88;100834.66;5166904;28;20529;-54
2022/09/30 00:25:07;;;;;;;15.65;10.65;;;;;;;13.18;59.80;100834.00;5166380;28;20389;-53
2022/09/30 00:27:40;;;;;;;;;;;;;;;13.13;59.92;100831.00;5167796;28;20837;-49
2022/09/30 00:30:12;;;;;;;20.17;11.82;;;;;;;13.08;60.04;100838.66;5160831;28;19935;-51
2022/09/30 00:32:46;;;;;;;18.38;11.88;;;;;;;13.04;59.96;100834.69;5157570;28;21179;-52
2022/09/30 00:35:20;;;;;;;20.88;12.35;;;;;;;12.99;60.11;100843.13;5163698;28;20368;-53
2022/09/30 00:37:54;;;;;;;20.55;11.27;;;;;;;12.93;60.18;100833.19;5158657;28;20092;-47
2022/09/30 00:40:27;;;;;;;19.92;12.75;;;;;;;12.89;60.13;100845.94;5164261;28;20032;-53
2022/09/30 00:43:00;;;;;;;;;;;;;;;12.84;60.17;100839.47;5165820;28;20037;-53
2022/09/30 00:45:33;;;;;;;15.70;10.83;;;;;;;12.78;60.19;100840.94;5166343;28;23834;-53
2022/09/30 00:48:11;;;;;;;17.75;11.05;;;;;;;12.69;60.19;100837.44;5163464;28;20558;-52
2022/09/30 00:50:48;;;;;;;18.05;12.90;;;;;;;12.66;60.23;100839.59;5160550;28;20588;-52
2022/09/30 00:53:25;;;;;;;16.77;12.35;;;;;;;12.61;60.37;100831.34;5163368;28;20365;-53
2022/09/30 00:56:01;;;;;;;16.92;11.25;;;;;;;12.55;60.32;100842.59;5157546;28;20063;-50
2022/09/30 00:58:38;;;;;;;19.33;12.23;;;;;;;12.44;60.30;100836.56;5165797;28;20140;-44
2022/09/30 01:01:10;;;;;;;14.13;11.35;;;;;;;12.45;60.47;100840.06;5164141;28;20473;-52
2022/09/30 01:03:49;;;;;;;16.48;11.70;;;;;;;12.37;60.47;100840.88;5154513;28;20203;-53
2022/09/30 01:06:23;;;;;;;16.73;11.73;;;;;;;12.30;60.52;100837.22;5163812;28;20387;-52
2022/09/30 01:08:57;;;;;;;21.08;12.95;;;;;;;12.27;60.49;100834.06;5158526;28;20132;-50
2022/09/30 01:11:30;;;;;;;21.05;12.63;;;;;;;12.21;60.59;100835.53;5163729;28;20361;-53
2022/09/30 01:14:07;;;;;;;17.35;12.80;;;;;;;12.16;60.54;100830.69;5163564;28;20387;-52
2022/09/30 01:16:54;;;;;;;21.25;14.13;;;;;;;12.13;60.54;100846.09;5168231;28;20347;-52
2022/09/30 01:20:14;;;;;;;23.40;13.40;;;;;;;12.08;60.56;100848.38;5158518;28;20041;-51
2022/09/30 01:22:57;;;;;;;25.92;14.18;;;;;;;12.02;60.70;100841.91;5163378;28;20413;-52
2022/09/30 01:26:35;;;;;;;20.35;13.70;;;;;;;11.96;60.71;100840.72;5172121;28;20522;-53
2022/09/30 01:30:14;;;;;;;18.75;11.57;;;;;;;11.90;60.88;100846.66;5105178;28;20064;-51
2022/09/30 01:33:20;;;;;;;19.38;11.73;;;;;;;11.83;60.90;100847.41;5095716;28;20448;-52
2022/09/30 01:36:24;;;;;;;19.60;13.15;;;;;;;11.75;60.93;100850.84;5165384;28;20512;-53
2022/09/30 01:39:11;;;;;;;21.98;13.10;;;;;;;11.72;60.90;100845.88;5168894;28;20373;-49
2022/09/30 01:41:51;;;;;;;19.10;12.70;;;;;;;11.69;61.06;100840.88;5168503;28;20473;-51
2022/09/30 01:44:37;;;;;;;22.30;12.93;;;;;;;11.58;61.10;100849.06;5170970;28;20629;-54
2022/09/30 01:47:16;;;;;;;15.98;10.68;;;;;;;11.61;61.07;100854.06;5161294;28;20056;-49
2022/09/30 01:49:54;;;;;;;19.25;12.02;;;;;;;11.57;61.11;100856.19;5150521;28;20257;-50
2022/09/30 01:52:38;;;;;;;25.13;13.52;;;;;;;11.45;61.15;100839.75;5152828;28;20358;-52
2022/09/30 01:55:18;;;;;;;20.00;13.35;;;;;;;11.23;61.34;100819.09;5151033;28;20284;-53
2022/09/30 01:57:58;;;;;;;24.73;15.43;;;;;;;11.45;61.30;100847.69;5148778;28;20337;-50
2022/09/30 02:00:33;;;;;;;21.80;13.98;;;;;;;11.42;61.32;100850.63;5153890;28;20048;-54
2022/09/30 02:03:12;;;;;;;17.38;13.15;;;;;;;11.38;61.17;100846.66;5151591;28;20440;-54
2022/09/30 02:05:54;;;;;;;21.80;14.10;;;;;;;11.32;61.43;100840.16;5149518;28;20405;-53
2022/09/30 02:08:32;;;;;;;23.15;14.80;;;;;;;11.30;61.35;100841.28;5158681;28;20425;-54
2022/09/30 02:11:09;;;;;;;20.33;12.40;;;;;;;11.27;61.56;100838.94;5150662;28;20521;-43
2022/09/30 02:13:49;;;;;;;23.77;13.77;;;;;;;11.23;61.51;100832.31;5152201;28;20045;-53
2022/09/30 02:16:25;;;;;;;21.83;13.40;;;;;;;11.19;61.28;100834.44;5152496;28;20045;-51
2022/09/30 02:19:03;;;;;;;20.70;12.32;;;;;;;11.15;61.49;100833.09;5152563;28;20519;-54
2022/09/30 02:21:41;;;;;;;20.08;13.07;;;;;;;11.13;61.62;100828.94;5153363;28;20127;-53
2022/09/30 02:24:18;;;;;;;19.98;12.10;;;;;;;11.12;61.49;100837.84;5151141;28;20699;-51
2022/09/30 02:26:53;;;;;;;22.40;13.18;;;;;;;11.06;61.51;100840.13;5155707;28;20160;-51
2022/09/30 02:29:30;;;;;;;19.08;12.15;;;;;;;11.04;61.72;100851.84;5154660;28;20034;-51
2022/09/30 02:32:12;;;;;;;22.00;13.18;;;;;;;10.93;61.69;100839.69;5157323;28;20474;-55
2022/09/30 02:34:49;;;;;;;23.05;12.90;;;;;;;10.97;61.86;100856.09;5158762;28;20119;-52
2022/09/30 02:37:27;;;;;;;19.05;13.13;;;;;;;10.94;61.82;100862.50;5160086;28;20374;-51
2022/09/30 02:40:06;;;;;;;22.17;12.10;;;;;;;10.90;61.77;100869.06;5157066;28;20068;-53
2022/09/30 02:42:40;;;;;;;24.92;13.63;;;;;;;10.87;61.95;100861.44;5158468;28;20053;-53
2022/09/30 02:45:16;;;;;;;27.30;15.40;;;;;;;10.84;61.99;100856.47;5152860;28;20441;-45
2022/09/30 02:48:06;;;;;;;22.25;15.10;;;;;;;10.70;61.99;100835.84;5159926;28;20068;-53
2022/09/30 02:50:47;;;;;;;25.77;15.13;;;;;;;10.77;62.11;100850.09;5158435;28;20123;-53
2022/09/30 02:53:27;;;;;;;23.30;13.82;;;;;;;10.75;62.14;100852.09;5153858;28;20044;-52
2022/09/30 02:56:23;;;;;;;18.15;12.50;;;;;;;10.72;62.06;100853.22;5159504;28;20147;-53
2022/09/30 02:58:57;;;;;;;19.85;12.20;;;;;;;10.69;62.05;100858.78;5156841;28;20476;-47
2022/09/30 03:01:30;;;;;;;21.15;14.15;;;;;;;10.61;62.06;100861.34;5156819;28;20045;-54
2022/09/30 03:04:06;;;;;;;18.35;12.88;;;;;;;10.64;62.28;100866.31;5158423;28;20056;-54
2022/09/30 03:06:39;;;;;;;19.48;12.50;;;;;;;10.61;62.15;100861.34;5156287;28;20065;-54
2022/09/30 03:09:14;;;;;;;22.83;14.50;;;;;;;10.55;62.59;100868.03;5158470;28;20068;-53
2022/09/30 03:11:48;;;;;;;28.48;14.13;;;;;;;10.55;62.31;100873.31;5153811;28;20516;-52
2022/09/30 03:14:40;;;;;;;21.50;13.45;;;;;;;10.52;62.45;100872.78;5156495;28;20478;-52
2022/09/30 03:17:37;;;;;;;20.88;13.40;;;;;;;10.49;62.57;100870.44;5156019;28;20124;-53
2022/09/30 03:20:32;;;;;;;17.90;12.85;;;;;;;10.48;62.53;100868.81;5156428;28;20051;-52
2022/09/30 03:23:52;;;;;;;21.42;14.15;;;;;;;10.43;62.61;100863.13;5156009;28;20040;-50
2022/09/30 03:26:38;;;;;;;23.88;13.35;;;;;;;10.41;62.69;100870.38;5156680;28;20044;-50
2022/09/30 03:29:19;;;;;;;21.38;14.60;;;;;;;10.38;62.62;100874.13;5156184;28;20597;-53
2022/09/30 03:32:06;;;;;;;33.40;14.15;;;;;;;10.38;62.63;100876.78;5155414;28;20240;-51
2022/09/30 03:34:59;;;;;;;22.85;13.48;;;;;;;10.36;62.85;100884.00;5155622;28;20452;-53
2022/09/30 03:37:44;;;;;;;22.10;13.53;;;;;;;10.36;62.82;100891.94;5156692;28;20398;-50
2022/09/30 03:40:26;;;;;;;23.17;13.45;;;;;;;10.12;62.88;100851.03;5155850;28;20033;-53
2022/09/30 03:43:06;;;;;;;24.15;13.48;;;;;;;10.30;62.79;100898.63;5160026;28;20127;-54
2022/09/30 03:45:45;;;;;;;22.42;11.60;;;;;;;10.27;62.82;100898.91;5156494;28;20045;-52
2022/09/30 03:48:20;;;;;;;22.75;12.40;;;;;;;10.24;62.86;100891.25;5151940;28;20541;-54
2022/09/30 03:50:54;;;;;;;18.00;12.32;;;;;;;10.21;62.94;100891.53;5155683;28;20533;-53
2022/09/30 03:53:27;;;;;;;25.27;11.65;;;;;;;10.19;62.94;100893.53;5157775;28;20041;-56
2022/09/30 03:56:00;;;;;;;26.35;12.98;;;;;;;10.18;62.99;100891.00;5157406;28;20049;-51
2022/09/30 03:58:34;;;;;;;22.45;13.18;;;;;;;10.13;62.99;100900.22;5156762;28;20045;-55
2022/09/30 04:01:07;;;;;;;16.98;12.50;;;;;;;10.10;63.16;100889.13;5155950;28;20049;-49
2022/09/30 04:03:40;;;;;;;23.63;14.43;;;;;;;10.08;63.19;100897.16;5145915;28;20521;-51
2022/09/30 04:06:14;;;;;;;21.38;12.02;;;;;;;10.04;63.03;100901.06;5158438;28;20120;-55
2022/09/30 04:08:47;;;;;;;20.00;12.20;;;;;;;10.03;63.15;100899.38;5155993;28;20360;-51
2022/09/30 04:11:20;;;;;;;23.98;12.90;;;;;;;10.00;63.21;100902.31;5160278;28;20045;-55
2022/09/30 04:13:55;;;;;;;19.02;12.95;;;;;;;9.99;63.17;100905.94;5156327;28;20050;-52
2022/09/30 04:16:29;;;;;;;29.85;13.18;;;;;;;9.96;63.11;100903.59;5155955;28;22054;-53
2022/09/30 04:19:02;;;;;;;24.73;12.20;;;;;;;9.94;63.15;100908.19;5161655;28;20125;-51
2022/09/30 04:21:35;;;;;;;23.02;12.55;;;;;;;9.74;63.31;100902.13;5153500;28;20136;-52
2022/09/30 04:24:08;;;;;;;23.15;13.50;;;;;;;9.91;63.38;100922.50;5163503;28;20065;-57
2022/09/30 04:26:41;;;;;;;23.38;11.25;;;;;;;9.89;63.27;100918.34;5154479;28;20406;-55
2022/09/30 04:29:15;;;;;;;21.27;13.52;;;;;;;9.87;63.42;100912.38;5156070;28;20049;-47
2022/09/30 04:31:47;;;;;;;19.27;12.68;;;;;;;9.83;63.35;100898.63;5154717;28;20087;-51
2022/09/30 04:34:20;;;;;;;26.20;14.82;;;;;;;9.80;63.52;100903.38;5154720;28;20080;-54
2022/09/30 04:36:55;;;;;;;24.20;12.93;;;;;;;9.83;63.50;100905.72;5156376;28;20143;-53
2022/09/30 04:39:28;;;;;;;18.23;11.57;;;;;;;9.81;63.32;100905.84;5164449;28;20060;-52
2022/09/30 04:42:00;;;;;;;26.55;13.50;;;;;;;9.79;63.58;100907.00;5154381;28;20041;-53
2022/09/30 04:44:34;;;;;;;23.90;13.15;;;;;;;9.77;63.53;100909.75;5155645;28;20977;-54
2022/09/30 04:47:07;;;;;;;19.75;11.57;;;;;;;9.77;63.42;100909.75;5154748;28;20064;-53
2022/09/30 04:49:40;;;;;;;21.08;12.90;;;;;;;9.76;63.57;100912.56;5154874;28;20541;-50
2022/09/30 04:52:13;;;;;;;24.95;13.73;;;;;;;9.72;63.57;100916.44;5154555;28;20049;-50
2022/09/30 04:54:45;;;;;;;24.63;14.88;;;;;;;9.68;63.84;100916.72;5152262;28;20041;-53
2022/09/30 04:57:18;;;;;;;23.00;13.88;;;;;;;9.70;63.63;100935.88;5154377;28;20129;-51
2022/09/30 04:59:52;;;;;;;25.13;13.82;;;;;;;9.69;63.59;100936.00;5157740;28;20473;-53
2022/09/30 05:02:25;;;;;;;26.27;14.95;;;;;;;9.69;63.73;100943.91;5157647;28;20394;-54
2022/09/30 05:04:57;;;;;;;30.33;14.23;;;;;;;9.68;63.92;100937.81;5154721;28;20049;-52
2022/09/30 05:07:31;;;;;;;27.88;14.90;;;;;;;9.68;63.75;100943.09;5156443;28;20049;-53
2022/09/30 05:10:06;;;;;;;25.88;15.50;;;;;;;9.69;63.85;100946.53;5163231;28;20052;-53
2022/09/30 05:12:39;;;;;;;32.05;14.60;;;;;;;9.64;63.97;100941.72;5156963;28;20095;-52
2022/09/30 05:15:13;;;;;;;28.52;15.80;;;;;;;9.73;64.04;100952.41;5160471;28;20489;-53
2022/09/30 05:17:49;;;;;;;25.48;16.52;;;;;;;9.75;63.86;100953.06;5148281;28;20042;-49
2022/09/30 05:20:22;;;;;;;37.17;18.73;;;;;;;9.79;63.77;100949.19;5155982;28;20370;-52
2022/09/30 05:22:56;;;;;;;37.88;19.02;;;;;;;9.82;63.77;100943.63;5152875;28;20057;-53
2022/09/30 05:25:28;;;;;;;40.88;17.50;;;;;;;9.83;63.82;100938.19;5152325;28;20358;-52
2022/09/30 05:28:01;;;;;;;26.20;16.20;;;;;;;9.84;63.82;100937.22;5152197;28;20459;-51
2022/09/30 05:30:35;;;;;;;32.15;17.77;;;;;;;9.85;63.65;100943.34;5155590;28;20415;-52
2022/09/30 05:33:08;;;;;;;28.65;17.48;;;;;;;9.84;63.73;100939.84;5168757;28;20041;-52
2022/09/30 05:35:42;;;;;;;38.80;22.30;;;;;;;9.80;63.86;100933.22;5169928;28;20414;-54
2022/09/30 05:38:15;;;;;;;61.08;35.90;;;;;;;9.86;63.86;100939.72;5148753;28;20195;-53
2022/09/30 05:40:48;;;;;;;36.63;20.55;;;;;;;9.86;63.72;100939.72;5151051;28;20084;-53
2022/09/30 05:43:21;;;;;;;66.40;35.33;;;;;;;9.75;63.53;100926.69;5153405;28;20603;-50
2022/09/30 05:45:56;;;;;;;;;;;;;;;9.86;63.79;100939.72;5158558;28;20044;-53
2022/09/30 05:48:28;;;;;;;27.23;16.40;;;;;;;9.87;63.74;100946.66;5169878;28;20205;-50
2022/09/30 05:51:01;;;;;;;28.55;18.13;;;;;;;9.87;63.94;100951.94;5170924;28;20041;-51
2022/09/30 05:53:38;;;;;;;29.45;18.02;;;;;;;9.87;63.95;100941.38;5170523;28;20068;-53
2022/09/30 05:56:11;;;;;;;38.05;19.88;;;;;;;9.90;63.87;100938.47;5169843;28;20339;-51
2022/09/30 05:58:44;;;;;;;31.52;17.00;;;;;;;9.87;63.80;100936.09;5166238;28;20134;-52
2022/09/30 06:01:18;;;;;;;32.30;17.40;;;;;;;9.90;63.69;100941.94;5166774;28;20045;-54
2022/09/30 06:03:50;;;;;;;30.35;17.83;;;;;;;9.96;63.78;100945.81;5169491;28;20774;-52
2022/09/30 06:06:23;;;;;;;37.20;20.33;;;;;;;9.97;63.83;100931.63;5166632;28;20042;-52
2022/09/30 06:08:56;;;;;;;33.80;19.40;;;;;;;10.02;63.98;100953.16;5165061;28;20059;-54
2022/09/30 06:11:30;;;;;;;43.92;23.20;;;;;;;10.05;63.81;100946.75;5176178;28;20448;-53
2022/09/30 06:14:02;;;;;;;46.97;26.83;;;;;;;10.12;63.93;100946.03;5174870;28;20045;-55
2022/09/30 06:16:36;;;;;;;54.70;29.33;;;;;;;10.22;63.99;100961.00;5173781;28;20571;-50
2022/09/30 06:19:09;;;;;;;58.45;31.95;;;;;;;10.33;63.97;100963.50;5171760;28;20045;-53
2022/09/30 06:21:42;;;;;;;70.00;35.22;;;;;;;10.49;63.82;100963.69;5172582;28;20061;-52
2022/09/30 06:24:15;;;;;;;64.93;34.65;;;;;;;10.66;63.82;100961.28;5170571;28;20432;-55
2022/09/30 06:26:47;;;;;;;54.67;32.35;;;;;;;10.87;63.66;100971.56;5173277;28;20448;-53
2022/09/30 06:29:20;;;;;;;54.05;30.35;;;;;;;11.03;63.47;100972.59;5173802;28;20551;-51
2022/09/30 06:31:54;;;;;;;40.38;27.90;;;;;;;11.19;63.46;100969.28;5173782;28;20049;-53
2022/09/30 06:34:27;;;;;;;36.10;23.58;;;;;;;11.37;63.43;100974.56;5172932;28;20385;-52
2022/09/30 06:37:00;;;;;;;32.25;24.05;;;;;;;11.32;63.12;100950.38;5173365;28;20033;-51
2022/09/30 06:39:32;;;;;;;;;;;;;;;11.73;63.36;100969.22;5174432;28;20104;-53
2022/09/30 06:42:05;;;;;;;25.38;18.77;;;;;;;11.88;63.23;100980.94;5173808;28;19947;-51
2022/09/30 06:44:37;;;;;;;20.05;16.38;;;;;;;11.99;63.01;100978.06;5172653;28;20044;-53
2022/09/30 06:47:12;;;;;;;19.02;14.30;;;;;;;11.98;63.12;100957.03;5168364;28;20049;-51
2022/09/30 06:49:45;;;;;;;18.38;14.15;;;;;;;12.20;63.12;100976.84;5171094;28;20475;-53
2022/09/30 06:52:18;;;;;;;21.45;13.85;;;;;;;12.34;63.08;100976.25;5172385;28;20493;-53
2022/09/30 06:54:51;;;;;;;21.80;11.82;;;;;;;12.57;63.15;100979.16;5171497;28;20056;-52
2022/09/30 06:57:26;;;;;;;9.80;8.77;;;;;;;14.11;63.72;100984.84;5173020;28;20408;-54
2022/09/30 06:59:59;;;;;;;14.82;7.88;;;;;;;16.96;59.47;100983.66;5173200;28;20040;-52
2022/09/30 07:02:33;;;;;;;10.95;5.40;;;;;;;19.43;56.09;100976.19;5173050;28;20049;-50
2022/09/30 07:05:07;;;;;;;7.22;3.88;;;;;;;20.35;54.51;100968.31;5176729;28;20071;-52
2022/09/30 07:07:40;;;;;;;5.95;4.38;;;;;;;19.96;54.81;100968.16;5167460;28;20094;-53
2022/09/30 07:10:12;;;;;;;6.35;3.35;;;;;;;18.97;55.77;100938.63;5153139;28;20049;-54
2022/09/30 07:12:48;;;;;;;4.18;3.47;;;;;;;18.13;57.03;100969.09;5150147;28;20046;-50
2022/09/30 07:15:22;;;;;;;6.32;3.15;;;;;;;17.28;58.11;100958.34;5152479;28;20437;-50
2022/09/30 07:17:56;;;;;;;4.38;3.03;;;;;;;16.66;58.84;100955.38;5142038;28;20493;-50
2022/09/30 07:20:29;;;;;;;3.95;2.78;;;;;;;16.15;59.61;100958.81;5160937;28;20405;-50
2022/09/30 07:23:01;;;;;;;4.07;2.42;;;;;;;15.85;60.04;100957.94;5174440;28;20450;-51
2022/09/30 07:25:34;;;;;;;4.47;3.00;;;;;;;15.60;60.32;100960.81;5174841;28;20053;-50
2022/09/30 07:28:07;;;;;;;4.70;2.63;;;;;;;15.26;60.34;100941.78;5173217;28;20059;-51
2022/09/30 07:30:43;;;;;;;3.95;2.70;;;;;;;15.14;60.25;100939.56;5174064;28;20740;-53
2022/09/30 07:33:17;;;;;;;5.93;3.08;;;;;;;15.22;60.47;100958.13;5171535;28;20128;-53
2022/09/30 07:35:53;;;;;;;6.72;3.45;;;;;;;15.14;60.54;100952.03;5173015;28;20171;-54
2022/09/30 07:38:30;;;;;;;4.28;2.83;;;;;;;15.08;60.87;100950.91;5172657;28;20044;-51
2022/09/30 07:41:07;;;;;;;4.50;2.67;;;;;;;15.09;60.76;100957.06;5173238;28;20504;-53
2022/09/30 07:43:42;;;;;;;4.03;2.47;;;;;;;15.13;60.75;100953.03;5174187;28;20124;-51
2022/09/30 07:46:21;;;;;;;7.07;3.50;;;;;;;15.26;60.48;100950.59;5170205;28;20658;-52
2022/09/30 07:48:59;;;;;;;6.70;2.58;;;;;;;15.40;60.15;100957.00;5172571;28;20049;-53
2022/09/30 07:51:35;;;;;;;9.75;2.65;;;;;;;15.55;60.00;100949.88;5165291;28;20084;-50
2022/09/30 07:54:12;;;;;;;10.10;2.47;;;;;;;15.70;59.71;100946.44;5171830;28;20051;-52
2022/09/30 07:56:46;;;;;;;9.00;3.03;;;;;;;15.77;59.63;100939.41;5171872;28;20049;-40
2022/09/30 07:59:20;;;;;;;3.95;2.33;;;;;;;16.11;59.47;100942.38;5172629;28;20102;-51
2022/09/30 08:01:52;;;;;;;5.18;2.45;;;;;;;16.39;58.87;100955.06;5174020;28;20067;-53
2022/09/30 08:04:27;;;;;;;9.23;2.58;;;;;;;16.56;58.63;100953.81;5173656;28;20047;-53
2022/09/30 08:07:02;;;;;;;6.80;1.98;;;;;;;16.76;58.47;100951.44;5174871;28;20076;-52
2022/09/30 08:09:34;;;;;;;4.93;1.33;;;;;;;17.02;58.09;100950.91;5172835;28;20506;-53
2022/09/30 08:12:07;;;;;;;1.38;1.10;;;;;;;17.37;57.75;100953.69;5173182;28;20044;-56
2022/09/30 08:14:40;;;;;;;3.45;1.20;;;;;;;17.68;57.05;100952.50;5162073;28;20041;-53
2022/09/30 08:17:13;;;;;;;3.47;0.88;;;;;;;17.65;56.87;100950.22;5169777;28;20061;-54
2022/09/30 08:19:48;;;;;;;1.67;1.20;;;;;;;17.48;56.98;100953.19;5167032;28;20140;-53
2022/09/30 08:22:22;;;;;;;1.77;1.38;;;;;;;17.26;57.26;100956.88;5167678;28;20037;-55
2022/09/30 08:24:55;;;;;;;5.95;1.42;;;;;;;17.06;57.30;100946.00;5167764;28;20045;-46
2022/09/30 08:27:28;;;;;;;3.33;1.70;;;;;;;16.87;57.59;100947.44;5164919;28;20342;-53
2022/09/30 08:30:00;;;;;;;2.90;2.08;;;;;;;16.74;57.75;100949.94;5165588;28;20330;-53
2022/09/30 08:32:33;;;;;;;2.53;2.00;;;;;;;16.35;57.81;100908.44;5168503;28;20053;-51
2022/09/30 08:35:08;;;;;;;5.43;2.30;;;;;;;16.53;57.83;100940.03;5169180;28;21598;-52
2022/09/30 08:37:41;;;;;;;19.30;2.05;;;;;;;16.57;57.84;100955.50;5163757;28;20523;-53
2022/09/30 08:40:23;;;;;;;3.03;1.77;;;;;;;16.44;57.74;100967.81;5167885;28;20041;-40
2022/09/30 08:43:23;;;;;;;2.97;1.80;;;;;;;16.28;57.72;100968.84;5168267;28;20158;-52
2022/09/30 08:46:06;;;;;;;5.05;1.73;;;;;;;16.18;57.83;100965.63;5167670;28;21540;-53
2022/09/30 08:48:50;;;;;;;2.33;1.77;;;;;;;16.11;57.92;100969.03;5166553;28;20048;-53
2022/09/30 08:51:34;;;;;;;2.58;1.50;;;;;;;16.12;57.98;100973.31;5162582;28;20477;-54
2022/09/30 08:54:15;;;;;;;2.53;1.90;;;;;;;16.13;57.72;100966.16;5163308;28;20481;-50
2022/09/30 08:56:48;;;;;;;1.45;1.30;;;;;;;16.10;57.81;100964.72;5162478;28;20465;-54
2022/09/30 08:59:28;;;;;;;;;;;;;;;16.07;57.74;100964.22;5164646;28;20052;-53
2022/09/30 09:02:12;;;;;;;2.20;1.40;;;;;;;16.02;57.80;100967.44;5164028;28;20326;-52
2022/09/30 09:04:45;;;;;;;2.28;2.03;;;;;;;16.04;57.83;100962.78;5153753;28;20207;-52
2022/09/30 09:07:35;;;;;;;1.73;1.15;;;;;;;16.09;57.73;100959.56;5158796;28;20045;-50
2022/09/30 09:10:26;;;;;;;1.33;1.23;;;;;;;16.16;57.63;100968.47;5163874;28;20160;-48
2022/09/30 09:13:07;;;;;;;2.10;1.50;;;;;;;16.29;57.61;100965.16;5169314;28;20749;-53
2022/09/30 09:16:03;;;;;;;6.15;1.70;;;;;;;16.42;57.57;100962.69;5175743;28;20066;-51
2022/09/30 09:18:52;;;;;;;4.43;1.70;;;;;;;16.67;57.58;100959.72;5169589;28;20467;-52
2022/09/30 09:21:40;;;;;;;2.00;1.80;;;;;;;17.07;56.79;100960.19;5170291;28;20442;-52
2022/09/30 09:24:17;;;;;;;6.57;1.65;;;;;;;17.49;56.64;100952.16;5169213;28;20051;-53
2022/09/30 09:27:21;;;;;;;5.20;1.60;;;;;;;18.23;56.03;100953.53;5168231;28;20059;-53
2022/09/30 09:30:06;;;;;;;2.38;1.70;;;;;;;19.00;55.04;100955.09;5166550;28;20870;-55
2022/09/30 09:32:39;;;;;;;2.17;1.40;;;;;;;19.44;54.04;100943.00;5170672;28;20351;-53
2022/09/30 09:35:17;;;;;;;3.25;1.27;;;;;;;19.71;53.56;100962.63;5170139;28;20485;-51
2022/09/30 09:41:07;;;;;;;4.30;1.98;;;;;;;19.73;53.36;100965.09;5167464;28;20047;-51
2022/09/30 09:43:53;;;;;;;5.03;2.97;;;;;;;19.58;53.52;100967.97;5170733;28;20417;-55
2022/09/30 09:46:30;;;;;;;8.40;2.95;;;;;;;19.37;53.54;100960.13;5167089;28;20067;-54
2022/09/30 09:49:37;;;;;;;10.68;3.65;;;;;;;19.02;53.86;100936.19;5167724;28;20033;-54
2022/09/30 09:52:53;;;;;;;5.78;4.00;;;;;;;19.06;53.57;100959.66;5084470;28;20439;-55
2022/09/30 09:55:26;;;;;;;8.18;4.22;;;;;;;19.00;53.73;100965.81;5168090;28;20103;-53
2022/09/30 09:58:15;;;;;;;12.18;5.78;;;;;;;18.84;53.76;100948.28;5168048;28;20127;-53
2022/09/30 10:01:18;;;;;;;7.32;4.45;;;;;;;18.80;53.72;100951.56;5168538;28;20519;-52
2022/09/30 10:04:14;;;;;;;8.50;4.82;;;;;;;18.70;53.82;100951.88;5165082;28;20114;-54
2022/09/30 10:06:53;;;;;;;6.65;5.07;;;;;;;18.61;53.89;100955.75;5164645;28;20045;-52
2022/09/30 10:09:30;;;;;;;9.13;4.65;;;;;;;18.50;53.99;100954.50;5167966;28;20404;-54
2022/09/30 10:12:30;;;;;;;12.73;5.45;;;;;;;18.47;53.88;100943.38;5171480;28;20208;-53
2022/09/30 10:15:19;;;;;;;14.20;7.20;;;;;;;18.55;54.01;100941.38;5164410;28;20460;-51
2022/09/30 10:17:55;;;;;;;16.00;7.32;;;;;;;18.65;53.91;100947.16;5167952;28;20049;-52
2022/09/30 10:20:31;;;;;;;10.70;6.78;;;;;;;18.70;53.65;100938.50;5170733;28;20128;-52
2022/09/30 10:23:11;;;;;;;9.20;6.93;;;;;;;18.70;53.65;100943.03;5168792;28;20144;-51
2022/09/30 10:25:57;;;;;;;8.65;6.43;;;;;;;18.58;53.72;100926.75;5167610;28;20042;-54
2022/09/30 10:28:34;;;;;;;9.00;6.45;;;;;;;18.65;53.83;100940.97;5153687;28;20535;-52
2022/09/30 10:31:15;;;;;;;13.77;6.68;;;;;;;18.60;53.88;100932.72;5154186;28;20049;-53
2022/09/30 10:33:53;;;;;;;9.82;6.45;;;;;;;18.77;53.75;100935.91;5151175;28;20362;-47
2022/09/30 10:36:33;;;;;;;8.52;6.18;;;;;;;18.84;53.69;100940.25;5154239;28;20046;-51
2022/09/30 10:39:09;;;;;;;8.95;6.35;;;;;;;18.85;53.54;100941.88;5156856;28;20554;-50
2022/09/30 10:41:41;;;;;;;8.68;6.10;;;;;;;18.74;53.37;100907.72;5155021;28;20131;-47
2022/09/30 10:44:19;;;;;;;16.50;7.55;;;;;;;18.98;53.40;100934.91;5163618;28;20438;-41
2022/09/30 10:46:58;;;;;;;12.60;5.57;;;;;;;18.97;53.41;100935.94;5160887;28;20587;-52
2022/09/30 10:49:36;;;;;;;10.63;6.22;;;;;;;18.93;53.43;100937.41;5168838;28;20343;-50
2022/09/30 10:52:26;;;;;;;10.02;5.57;;;;;;;18.88;53.68;100924.59;5170135;28;20043;-53
2022/09/30 10:55:00;;;;;;;5.13;3.00;;;;;;;18.95;53.51;100933.47;5172069;28;20049;-53
2022/09/30 10:57:36;;;;;;;5.07;2.20;;;;;;;18.87;53.39;100923.78;5171759;28;20496;-52
2022/09/30 11:00:17;;;;;;;4.50;2.38;;;;;;;18.91;53.14;100936.75;5173500;28;20041;-53
2022/09/30 11:02:57;;;;;;;8.02;1.33;;;;;;;18.89;53.13;100929.78;5169347;28;20056;-51
2022/09/30 11:05:34;;;;;;;3.58;1.17;;;;;;;19.01;52.94;100929.16;5172706;28;20049;-53
2022/09/30 11:08:18;;;;;;;1.98;1.35;;;;;;;19.22;52.78;100917.47;5174058;28;20374;-54
2022/09/30 11:10:57;;;;;;;0.77;0.73;;;;;;;19.41;51.99;100923.84;5170427;28;20064;-53
2022/09/30 11:13:39;;;;;;;3.97;1.00;;;;;;;19.38;51.38;100925.09;5168665;28;20051;-53
2022/09/30 11:16:21;;;;;;;2.20;0.95;;;;;;;19.22;50.63;100920.97;5168057;28;20434;-53
2022/09/30 11:19:03;;;;;;;0.98;0.88;;;;;;;19.07;50.79;100917.63;5167289;28;20377;-50
2022/09/30 11:21:43;;;;;;;1.35;0.93;;;;;;;18.94;50.92;100906.91;5170504;28;20454;-51
2022/09/30 11:24:26;;;;;;;1.20;1.10;;;;;;;18.94;50.78;100913.09;5169390;28;20460;-53
2022/09/30 11:27:08;;;;;;;10.77;1.15;;;;;;;18.95;50.91;100904.03;5168213;28;20137;-48
2022/09/30 11:29:56;;;;;;;3.67;1.30;;;;;;;17.56;51.72;100903.31;5171138;28;20373;-47
